Time;durP1;ratioP1;P1;durP2;ratioP2;P2;SDS_P1;SDS_P2;PMS_P1;PMS_P2;Temp;Humidity;BMP_temperature;BMP_pressure;BME280_temperature;BME280_humidity;BME280_pressure;Samples;Min_cycle;Max_cycle;Signal;HPM_P1;HPM_P2
2023/05/05 00:00:31;;;;;;;9.93;3.23;;;;;;;;;;5029572;28;20635;-70
2023/05/05 00:02:57;;;;;;;5.95;3.08;;;;;;;;;;5030224;28;20032;-70
2023/05/05 00:05:24;;;;;;;6.15;3.42;;;;;;;;;;5032288;28;20467;-70
2023/05/05 00:07:49;;;;;;;5.03;3.42;;;;;;;;;;5027953;28;20024;-70
2023/05/05 00:10:14;;;;;;;9.98;4.10;;;;;;;;;;5031564;28;20017;-70
2023/05/05 00:12:40;;;;;;;8.83;3.63;;;;;;;;;;5036574;28;20462;-70
2023/05/05 00:15:06;;;;;;;6.18;3.42;;;;;;;;;;5033118;28;20272;-70
2023/05/05 00:17:31;;;;;;;6.97;3.30;;;;;;;;;;5031171;28;20020;-71
2023/05/05 00:19:56;;;;;;;7.53;3.83;;;;;;;;;;5027725;28;20029;-71
2023/05/05 00:22:22;;;;;;;13.20;3.53;;;;;;;;;;5030045;28;20278;-69
2023/05/05 00:24:47;;;;;;;7.55;3.83;;;;;;;;;;5030483;28;20025;-70
2023/05/05 00:27:12;;;;;;;5.88;3.53;;;;;;;;;;5028357;28;20177;-70
2023/05/05 00:29:37;;;;;;;7.57;3.80;;;;;;;;;;5028641;28;20451;-70
2023/05/05 00:32:03;;;;;;;4.97;3.38;;;;;;;;;;5034128;28;20029;-71
2023/05/05 00:34:28;;;;;;;5.25;3.35;;;;;;;;;;5027955;28;20018;-71
2023/05/05 00:36:53;;;;;;;5.47;3.28;;;;;;;;;;5032319;28;20025;-70
2023/05/05 00:39:19;;;;;;;5.75;3.83;;;;;;;;;;5027553;28;20387;-70
2023/05/05 00:41:44;;;;;;;6.75;3.80;;;;;;;;;;5029216;28;20101;-71
2023/05/05 00:44:09;;;;;;;4.97;3.50;;;;;;;;;;5030075;28;20029;-70
2023/05/05 00:46:34;;;;;;;7.40;3.80;;;;;;;;;;5026968;28;20037;-70
2023/05/05 00:49:00;;;;;;;6.78;3.28;;;;;;;;;;5031112;28;20082;-71
2023/05/05 00:51:26;;;;;;;5.85;3.72;;;;;;;;;;5029585;28;20025;-70
2023/05/05 00:53:52;;;;;;;9.15;3.58;;;;;;;;;;5026978;28;20026;-70
2023/05/05 00:56:18;;;;;;;10.27;3.58;;;;;;;;;;5027285;28;20018;-71
2023/05/05 00:58:43;;;;;;;6.88;3.70;;;;;;;;;;5031795;28;20360;-70
2023/05/05 01:01:09;;;;;;;5.80;3.67;;;;;;;;;;5025775;28;20028;-71
2023/05/05 01:03:36;;;;;;;5.88;3.75;;;;;;;;;;5028891;28;20445;-71
2023/05/05 01:06:14;;;;;;;5.80;3.40;;;;;;;;;;5028889;28;20463;-70
2023/05/05 01:08:42;;;;;;;5.90;3.70;;;;;;;;;;5029434;28;20037;-71
2023/05/05 01:11:13;;;;;;;10.43;3.40;;;;;;;;;;5028654;28;20083;-70
2023/05/05 01:13:48;;;;;;;5.13;3.65;;;;;;;;;;5031525;28;20029;-71
2023/05/05 01:16:17;;;;;;;5.65;3.50;;;;;;;;;;5025506;28;20009;-71
2023/05/05 01:18:46;;;;;;;8.93;3.78;;;;;;;;;;5029469;28;20021;-70
2023/05/05 01:21:11;;;;;;;6.88;4.00;;;;;;;;;;5027306;28;20360;-71
2023/05/05 01:23:39;;;;;;;6.82;3.90;;;;;;;;;;5028127;28;20028;-71
2023/05/05 01:26:15;;;;;;;8.82;4.10;;;;;;;;;;5029169;28;20021;-70
2023/05/05 01:28:49;;;;;;;10.10;3.95;;;;;;;;;;5028057;28;20083;-71
2023/05/05 01:31:33;;;;;;;11.98;4.28;;;;;;;;;;5022410;28;20539;-70
2023/05/05 01:34:00;;;;;;;8.55;3.97;;;;;;;;;;5022177;28;20074;-70
2023/05/05 01:36:30;;;;;;;9.80;5.10;;;;;;;;;;5023610;28;20029;-70
2023/05/05 01:38:57;;;;;;;8.45;4.05;;;;;;;;;;5021789;28;20060;-71
2023/05/05 01:41:25;;;;;;;5.35;3.63;;;;;;;;;;5029516;28;20037;-70
2023/05/05 01:43:51;;;;;;;10.80;4.25;;;;;;;;;;5026081;28;20028;-71
2023/05/05 01:46:17;;;;;;;9.60;3.80;;;;;;;;;;5034165;28;20021;-70
2023/05/05 01:48:43;;;;;;;7.10;3.85;;;;;;;;;;5025220;28;20087;-70
2023/05/05 01:51:09;;;;;;;9.38;4.10;;;;;;;;;;5030716;28;20018;-71
2023/05/05 01:53:35;;;;;;;7.70;3.78;;;;;;;;;;5030276;28;20470;-73
2023/05/05 01:56:00;;;;;;;6.32;3.50;;;;;;;;;;5028283;28;20075;-71
2023/05/05 01:58:27;;;;;;;6.10;3.95;;;;;;;;;;5029888;28;20032;-70
2023/05/05 02:00:55;;;;;;;6.35;3.65;;;;;;;;;;5028625;28;20456;-71
2023/05/05 02:03:21;;;;;;;8.02;4.15;;;;;;;;;;5028798;28;20025;-70
2023/05/05 02:05:47;;;;;;;5.55;4.15;;;;;;;;;;5031432;28;20029;-70
2023/05/05 02:08:13;;;;;;;9.15;4.10;;;;;;;;;;5029538;28;20018;-71
2023/05/05 02:10:41;;;;;;;6.75;4.20;;;;;;;;;;5028225;28;20108;-70
2023/05/05 02:13:09;;;;;;;9.32;4.18;;;;;;;;;;5025118;28;20021;-70
2023/05/05 02:15:36;;;;;;;6.55;4.13;;;;;;;;;;5022303;28;20061;-70
2023/05/05 02:18:04;;;;;;;6.15;3.63;;;;;;;;;;5029776;28;20017;-70
2023/05/05 02:20:30;;;;;;;9.30;4.45;;;;;;;;;;5021938;28;20119;-70
2023/05/05 02:22:55;;;;;;;7.07;4.65;;;;;;;;;;5033942;28;20453;-70
2023/05/05 02:25:20;;;;;;;10.48;4.18;;;;;;;;;;5026469;28;20403;-70
2023/05/05 02:27:46;;;;;;;9.63;4.13;;;;;;;;;;5028967;28;20071;-71
2023/05/05 02:30:13;;;;;;;10.35;4.53;;;;;;;;;;5020909;28;20097;-70
2023/05/05 02:32:40;;;;;;;13.57;5.05;;;;;;;;;;5031124;28;20021;-70
2023/05/05 02:35:10;;;;;;;7.22;4.35;;;;;;;;;;5025754;28;20040;-70
2023/05/05 02:37:35;;;;;;;7.50;4.55;;;;;;;;;;5032853;28;20066;-71
2023/05/05 02:40:02;;;;;;;7.50;5.00;;;;;;;;;;5026964;28;20021;-70
2023/05/05 02:42:31;;;;;;;5.20;3.95;;;;;;;;;;5032122;28;20083;-71
2023/05/05 02:44:57;;;;;;;7.55;4.65;;;;;;;;;;5028644;28;20024;-70
2023/05/05 02:47:26;;;;;;;12.82;4.95;;;;;;;;;;5025304;28;20036;-70
2023/05/05 02:49:52;;;;;;;7.80;5.22;;;;;;;;;;5022438;28;20033;-71
2023/05/05 02:52:17;;;;;;;6.03;4.18;;;;;;;;;;5029136;28;20378;-70
2023/05/05 02:54:42;;;;;;;8.85;4.38;;;;;;;;;;5028751;28;20115;-71
2023/05/05 02:57:09;;;;;;;9.70;5.17;;;;;;;;;;5026966;28;20062;-71
2023/05/05 02:59:47;;;;;;;6.57;4.53;;;;;;;;;;5027985;28;20322;-70
2023/05/05 03:02:15;;;;;;;8.25;4.35;;;;;;;;;;5029346;28;20100;-71
2023/05/05 03:04:42;;;;;;;7.22;4.30;;;;;;;;;;5021506;28;20714;-70
2023/05/05 03:07:24;;;;;;;9.10;5.20;;;;;;;;;;5027458;28;20071;-71
2023/05/05 03:10:05;;;;;;;5.97;4.22;;;;;;;;;;5020798;28;20065;-71
2023/05/05 03:12:35;;;;;;;7.65;4.50;;;;;;;;;;5023744;28;20050;-71
2023/05/05 03:15:01;;;;;;;6.28;4.65;;;;;;;;;;5033204;28;20052;-70
2023/05/05 03:17:27;;;;;;;6.03;3.75;;;;;;;;;;5032126;28;20479;-70
2023/05/05 03:19:53;;;;;;;7.18;4.72;;;;;;;;;;5033429;28;20096;-70
2023/05/05 03:22:18;;;;;;;7.03;4.57;;;;;;;;;;5034548;28;20542;-70
2023/05/05 03:24:48;;;;;;;11.32;4.75;;;;;;;;;;5032685;28;20048;-70
2023/05/05 03:27:13;;;;;;;11.57;5.20;;;;;;;;;;5031682;28;20063;-70
2023/05/05 03:29:38;;;;;;;10.63;4.90;;;;;;;;;;5031322;28;20029;-71
2023/05/05 03:32:04;;;;;;;7.75;4.70;;;;;;;;;;5027315;28;20025;-71
2023/05/05 03:34:29;;;;;;;9.90;5.53;;;;;;;;;;5028086;28;21555;-70
2023/05/05 03:36:55;;;;;;;7.57;5.13;;;;;;;;;;5026009;28;20045;-70
2023/05/05 03:39:20;;;;;;;7.43;4.53;;;;;;;;;;5031864;28;20661;-70
2023/05/05 03:41:45;;;;;;;7.63;4.25;;;;;;;;;;5032509;28;20018;-70
2023/05/05 03:44:10;;;;;;;9.83;4.77;;;;;;;;;;5032715;28;20020;-70
2023/05/05 03:46:35;;;;;;;7.13;4.80;;;;;;;;;;5030306;28;20884;-71
2023/05/05 03:49:00;;;;;;;8.57;4.97;;;;;;;;;;5032069;28;20268;-70
2023/05/05 03:51:26;;;;;;;8.25;4.30;;;;;;;;;;5031789;28;20033;-69
2023/05/05 03:53:52;;;;;;;9.35;4.60;;;;;;;;;;5035135;28;20017;-69
2023/05/05 03:56:17;;;;;;;7.73;4.73;;;;;;;;;;5036211;28;20032;-72
2023/05/05 03:58:42;;;;;;;10.93;5.30;;;;;;;;;;5035665;28;20272;-72
2023/05/05 04:01:07;;;;;;;8.83;4.90;;;;;;;;;;5032225;28;20018;-70
2023/05/05 04:03:33;;;;;;;6.00;4.63;;;;;;;;;;5032625;28;20264;-69
2023/05/05 04:05:58;;;;;;;10.70;4.53;;;;;;;;;;5036259;28;20091;-69
2023/05/05 04:08:23;;;;;;;7.45;4.53;;;;;;;;;;5029533;28;20276;-69
2023/05/05 04:10:49;;;;;;;8.00;5.30;;;;;;;;;;5029899;28;20033;-69
2023/05/05 04:13:15;;;;;;;10.93;4.93;;;;;;;;;;5033331;28;20255;-69
2023/05/05 04:15:46;;;;;;;8.13;4.43;;;;;;;;;;5034262;28;20766;-70
2023/05/05 04:18:11;;;;;;;8.48;4.15;;;;;;;;;;5033650;28;20583;-69
2023/05/05 04:20:36;;;;;;;7.55;4.75;;;;;;;;;;5032254;28;20026;-69
2023/05/05 04:23:01;;;;;;;8.68;4.85;;;;;;;;;;5028985;28;20021;-69
2023/05/05 04:25:27;;;;;;;7.93;4.90;;;;;;;;;;5031969;28;20025;-70
2023/05/05 04:27:52;;;;;;;8.87;5.03;;;;;;;;;;5030203;28;20264;-69
2023/05/05 04:30:17;;;;;;;9.52;4.70;;;;;;;;;;5031723;28;20610;-70
2023/05/05 04:32:42;;;;;;;8.98;5.10;;;;;;;;;;5029786;28;20021;-69
2023/05/05 04:35:07;;;;;;;6.35;4.63;;;;;;;;;;5034128;28;20498;-71
2023/05/05 04:37:33;;;;;;;14.10;5.20;;;;;;;;;;5030363;28;20410;-70
2023/05/05 04:39:58;;;;;;;7.60;4.95;;;;;;;;;;5031291;28;20088;-69
2023/05/05 04:42:23;;;;;;;11.38;4.95;;;;;;;;;;5030490;28;20118;-69
2023/05/05 04:44:48;;;;;;;9.65;4.72;;;;;;;;;;5032844;28;20032;-69
2023/05/05 04:47:13;;;;;;;12.03;5.00;;;;;;;;;;5029907;28;20474;-69
2023/05/05 04:49:39;;;;;;;10.93;5.43;;;;;;;;;;5030232;28;20284;-69
2023/05/05 04:52:04;;;;;;;8.00;5.27;;;;;;;;;;5027874;28;20280;-69
2023/05/05 04:54:29;;;;;;;9.27;5.88;;;;;;;;;;5030658;28;20275;-70
2023/05/05 04:56:54;;;;;;;7.40;4.70;;;;;;;;;;5030213;28;20021;-69
2023/05/05 04:59:20;;;;;;;12.70;5.20;;;;;;;;;;5027879;28;20288;-69
2023/05/05 05:01:45;;;;;;;12.13;5.03;;;;;;;;;;5030042;28;20021;-69
2023/05/05 05:04:10;;;;;;;9.82;5.38;;;;;;;;;;5033773;28;20108;-69
2023/05/05 05:06:36;;;;;;;10.07;5.65;;;;;;;;;;5028552;28;20490;-71
2023/05/05 05:09:01;;;;;;;9.05;5.00;;;;;;;;;;5027530;28;20545;-69
2023/05/05 05:11:26;;;;;;;10.63;5.85;;;;;;;;;;5028425;28;20762;-69
2023/05/05 05:13:52;;;;;;;10.82;5.22;;;;;;;;;;5021772;28;20420;-69
2023/05/05 05:16:17;;;;;;;11.25;5.43;;;;;;;;;;5023749;28;20040;-69
2023/05/05 05:18:42;;;;;;;10.52;5.32;;;;;;;;;;5026739;28;20026;-70
2023/05/05 05:21:07;;;;;;;9.37;5.43;;;;;;;;;;5028192;28;20033;-69
2023/05/05 05:23:32;;;;;;;9.53;6.27;;;;;;;;;;5031623;28;20325;-70
2023/05/05 05:25:58;;;;;;;9.30;5.53;;;;;;;;;;5022170;28;20279;-69
2023/05/05 05:28:23;;;;;;;9.90;4.72;;;;;;;;;;5029685;28;20071;-70
2023/05/05 05:30:48;;;;;;;11.83;5.40;;;;;;;;;;5026233;28;20025;-71
2023/05/05 05:33:13;;;;;;;11.60;4.73;;;;;;;;;;5031046;28;20477;-73
2023/05/05 05:35:39;;;;;;;11.13;6.28;;;;;;;;;;5027990;28;20317;-73
2023/05/05 05:38:04;;;;;;;15.57;6.13;;;;;;;;;;5027703;28;20009;-72
2023/05/05 05:40:30;;;;;;;11.35;5.40;;;;;;;;;;5023253;28;20020;-71
2023/05/05 05:42:55;;;;;;;11.65;5.50;;;;;;;;;;5024893;28;20046;-71
2023/05/05 05:45:20;;;;;;;8.20;5.90;;;;;;;;;;5021733;28;20429;-71
2023/05/05 05:47:45;;;;;;;14.43;5.93;;;;;;;;;;5026359;28;20030;-71
2023/05/05 05:50:11;;;;;;;9.52;6.03;;;;;;;;;;5024768;28;20032;-71
2023/05/05 05:52:36;;;;;;;11.17;6.03;;;;;;;;;;5028266;28;20021;-71
2023/05/05 05:55:01;;;;;;;9.80;5.10;;;;;;;;;;5022772;28;20260;-71
2023/05/05 05:57:26;;;;;;;11.18;6.15;;;;;;;;;;5025422;28;20272;-71
2023/05/05 05:59:52;;;;;;;9.40;6.17;;;;;;;;;;5020212;28;20677;-71
2023/05/05 06:02:18;;;;;;;14.43;9.02;;;;;;;;;;5025696;28;20265;-72
2023/05/05 06:04:43;;;;;;;13.48;6.75;;;;;;;;;;5026055;28;20072;-72
2023/05/05 06:07:08;;;;;;;9.33;5.80;;;;;;;;;;5025594;28;20056;-71
2023/05/05 06:09:33;;;;;;;13.30;5.30;;;;;;;;;;5028321;28;20264;-71
2023/05/05 06:11:59;;;;;;;10.43;5.30;;;;;;;;;;5027381;28;20284;-71
2023/05/05 06:14:24;;;;;;;10.68;5.88;;;;;;;;;;5033234;28;20025;-73
2023/05/05 06:16:51;;;;;;;13.55;5.93;;;;;;;;;;5022108;28;20533;-71
2023/05/05 06:19:16;;;;;;;9.75;5.80;;;;;;;;;;5032390;28;20712;-72
2023/05/05 06:21:41;;;;;;;7.17;5.27;;;;;;;;;;5025632;28;20121;-69
2023/05/05 06:24:06;;;;;;;8.80;5.50;;;;;;;;;;5028603;28;20036;-71
2023/05/05 06:26:31;;;;;;;13.93;5.72;;;;;;;;;;5027362;28;20171;-69
2023/05/05 06:28:57;;;;;;;17.30;5.87;;;;;;;;;;5029284;28;20065;-70
2023/05/05 06:31:22;;;;;;;10.43;5.57;;;;;;;;;;5023773;28;21085;-70
2023/05/05 06:33:47;;;;;;;14.80;5.55;;;;;;;;;;5028169;28;20274;-70
2023/05/05 06:36:12;;;;;;;11.67;7.17;;;;;;;;;;5026153;28;20026;-69
2023/05/05 06:38:37;;;;;;;15.07;8.67;;;;;;;;;;5030487;28;20047;-69
2023/05/05 06:41:03;;;;;;;14.47;7.67;;;;;;;;;;5027373;28;20279;-69
2023/05/05 06:43:28;;;;;;;17.58;7.85;;;;;;;;;;5031222;28;20333;-69
2023/05/05 06:45:53;;;;;;;15.43;8.30;;;;;;;;;;5029442;28;20025;-69
2023/05/05 06:48:19;;;;;;;17.53;8.60;;;;;;;;;;5026746;28;20018;-69
2023/05/05 06:50:44;;;;;;;25.50;8.80;;;;;;;;;;5018860;28;20322;-69
2023/05/05 06:53:09;;;;;;;17.80;9.73;;;;;;;;;;5026692;28;20021;-69
2023/05/05 06:55:35;;;;;;;17.27;9.65;;;;;;;;;;5027210;28;20013;-69
2023/05/05 06:58:00;;;;;;;17.40;9.25;;;;;;;;;;5026191;28;20017;-69
2023/05/05 07:00:25;;;;;;;16.98;8.98;;;;;;;;;;5028789;28;20386;-69
2023/05/05 07:02:50;;;;;;;16.67;8.75;;;;;;;;;;5027610;28;20497;-70
2023/05/05 07:05:16;;;;;;;21.03;9.90;;;;;;;;;;5017452;28;20022;-69
2023/05/05 07:07:53;;;;;;;19.48;9.20;;;;;;;;;;5023322;28;20900;-69
2023/05/05 07:10:20;;;;;;;17.63;8.95;;;;;;;;;;5026039;28;20018;-69
2023/05/05 07:12:45;;;;;;;13.90;9.20;;;;;;;;;;5030072;28;20021;-69
2023/05/05 07:15:10;;;;;;;22.27;10.20;;;;;;;;;;5029476;28;20014;-70
2023/05/05 07:17:36;;;;;;;22.40;10.30;;;;;;;;;;5026004;28;20025;-70
2023/05/05 07:20:01;;;;;;;20.23;12.00;;;;;;;;;;5027914;28;20029;-69
2023/05/05 07:22:26;;;;;;;22.48;11.07;;;;;;;;;;5027584;28;20443;-69
2023/05/05 07:24:52;;;;;;;18.37;11.23;;;;;;;;;;5025721;28;20454;-69
2023/05/05 07:27:17;;;;;;;18.43;10.93;;;;;;;;;;5029010;28;20072;-69
2023/05/05 07:29:42;;;;;;;22.50;11.55;;;;;;;;;;5025029;28;20276;-70
2023/05/05 07:32:08;;;;;;;22.07;11.67;;;;;;;;;;5023924;28;20029;-69
2023/05/05 07:34:33;;;;;;;19.60;12.10;;;;;;;;;;5032188;28;20402;-70
2023/05/05 07:36:58;;;;;;;21.50;11.50;;;;;;;;;;5023327;28;20018;-69
2023/05/05 07:39:23;;;;;;;28.73;11.48;;;;;;;;;;5024457;28;20029;-70
2023/05/05 07:41:49;;;;;;;19.27;11.43;;;;;;;;;;5024979;28;20021;-69
2023/05/05 07:44:14;;;;;;;16.37;10.40;;;;;;;;;;5029887;28;20268;-69
2023/05/05 07:46:39;;;;;;;16.38;10.88;;;;;;;;;;5029631;28;20322;-70
2023/05/05 07:49:05;;;;;;;13.43;9.93;;;;;;;;;;5027897;28;20033;-70
2023/05/05 07:51:30;;;;;;;16.08;9.95;;;;;;;;;;5028255;28;20036;-70
2023/05/05 07:53:56;;;;;;;13.98;9.18;;;;;;;;;;5026263;28;20014;-69
2023/05/05 07:56:21;;;;;;;13.77;9.10;;;;;;;;;;5029974;28;20030;-72
2023/05/05 07:58:46;;;;;;;15.60;8.80;;;;;;;;;;5028519;28;20093;-70
2023/05/05 08:01:12;;;;;;;15.33;9.07;;;;;;;;;;5030399;28;20083;-70
2023/05/05 08:03:37;;;;;;;18.13;8.50;;;;;;;;;;5025319;28;20057;-70
2023/05/05 08:06:08;;;;;;;18.67;8.33;;;;;;;;;;5020956;28;20475;-69
2023/05/05 08:08:34;;;;;;;13.27;7.65;;;;;;;;;;5025870;28;20044;-69
2023/05/05 08:11:00;;;;;;;12.50;6.90;;;;;;;;;;5032286;28;20038;-68
2023/05/05 08:13:25;;;;;;;9.18;6.28;;;;;;;;;;5028319;28;20129;-69
2023/05/05 08:15:51;;;;;;;11.48;6.97;;;;;;;;;;5032461;28;20111;-69
2023/05/05 08:18:16;;;;;;;7.65;5.38;;;;;;;;;;5028118;28;20426;-69
2023/05/05 08:20:41;;;;;;;7.38;4.88;;;;;;;;;;5032624;28;20018;-70
2023/05/05 08:23:07;;;;;;;11.02;6.43;;;;;;;;;;5028951;28;20022;-68
2023/05/05 08:25:32;;;;;;;20.60;7.43;;;;;;;;;;5035977;28;20074;-68
2023/05/05 08:27:57;;;;;;;13.77;6.93;;;;;;;;;;5031235;28;20021;-69
2023/05/05 08:30:22;;;;;;;11.17;6.77;;;;;;;;;;5027529;28;20064;-68
2023/05/05 08:32:48;;;;;;;10.52;6.30;;;;;;;;;;5022185;28;20766;-68
2023/05/05 08:35:13;;;;;;;16.35;7.68;;;;;;;;;;5030822;28;20383;-69
2023/05/05 08:37:38;;;;;;;11.45;7.43;;;;;;;;;;5028611;28;20036;-68
2023/05/05 08:40:04;;;;;;;11.73;7.75;;;;;;;;;;5033399;28;20068;-68
2023/05/05 08:42:30;;;;;;;14.15;8.77;;;;;;;;;;5031005;28;20029;-69
2023/05/05 08:44:55;;;;;;;13.35;8.88;;;;;;;;;;5031532;28;20022;-71
2023/05/05 08:47:20;;;;;;;16.63;8.27;;;;;;;;;;5026795;28;20093;-69
2023/05/05 08:49:46;;;;;;;10.82;7.68;;;;;;;;;;5030317;28;20022;-69
2023/05/05 08:52:16;;;;;;;15.98;8.23;;;;;;;;;;5029137;28;20390;-69
2023/05/05 08:54:45;;;;;;;14.35;7.90;;;;;;;;;;5027941;28;20032;-70
2023/05/05 08:57:12;;;;;;;12.85;6.97;;;;;;;;;;5027606;28;20380;-69
2023/05/05 08:59:37;;;;;;;16.58;9.25;;;;;;;;;;5027379;28;20117;-69
2023/05/05 09:02:03;;;;;;;15.35;9.23;;;;;;;;;;5027303;28;22183;-69
2023/05/05 09:04:29;;;;;;;14.35;9.10;;;;;;;;;;5023886;28;20048;-69
2023/05/05 09:06:56;;;;;;;17.25;8.90;;;;;;;;;;5026806;28;20080;-69
2023/05/05 09:09:21;;;;;;;14.65;9.65;;;;;;;;;;5029873;28;20122;-69
2023/05/05 09:11:47;;;;;;;11.95;8.50;;;;;;;;;;5028543;28;20418;-69
2023/05/05 09:14:12;;;;;;;15.40;8.70;;;;;;;;;;5030273;28;20029;-69
2023/05/05 09:16:40;;;;;;;17.20;9.37;;;;;;;;;;5032940;28;20032;-69
2023/05/05 09:19:05;;;;;;;21.95;9.10;;;;;;;;;;5022936;28;20369;-69
2023/05/05 09:21:31;;;;;;;17.50;10.27;;;;;;;;;;5028695;28;20041;-69
2023/05/05 09:24:03;;;;;;;15.88;9.25;;;;;;;;;;5029339;28;20285;-69
2023/05/05 09:26:30;;;;;;;22.58;8.60;;;;;;;;;;5032333;28;20036;-68
2023/05/05 09:28:56;;;;;;;16.08;9.02;;;;;;;;;;5031107;28;20108;-68
2023/05/05 09:31:21;;;;;;;18.17;9.07;;;;;;;;;;5031936;28;20112;-68
2023/05/05 09:33:46;;;;;;;17.27;9.93;;;;;;;;;;5027265;28;20013;-68
2023/05/05 09:36:11;;;;;;;15.48;9.23;;;;;;;;;;5036923;28;20668;-68
2023/05/05 09:38:37;;;;;;;16.70;8.98;;;;;;;;;;5030206;28;20052;-69
2023/05/05 09:41:02;;;;;;;14.93;8.87;;;;;;;;;;5030564;28;20029;-69
2023/05/05 09:43:27;;;;;;;12.23;7.80;;;;;;;;;;5025044;28;20283;-69
2023/05/05 09:46:04;;;;;;;15.30;8.80;;;;;;;;;;5028683;28;20287;-69
2023/05/05 09:48:30;;;;;;;20.30;11.00;;;;;;;;;;5027715;28;20025;-69
2023/05/05 09:50:55;;;;;;;15.13;9.35;;;;;;;;;;5024494;28;20211;-69
2023/05/05 09:53:21;;;;;;;16.05;10.48;;;;;;;;;;5032492;28;20024;-68
2023/05/05 09:55:59;;;;;;;15.40;9.63;;;;;;;;;;5027993;28;20030;-68
2023/05/05 09:58:25;;;;;;;18.42;9.65;;;;;;;;;;5036379;28;20025;-69
2023/05/05 10:00:51;;;;;;;17.95;10.10;;;;;;;;;;5022918;28;20017;-68
2023/05/05 10:03:17;;;;;;;16.88;8.05;;;;;;;;;;5031784;28;20017;-68
2023/05/05 10:05:50;;;;;;;12.45;7.90;;;;;;;;;;5025863;28;20587;-68
2023/05/05 10:08:16;;;;;;;13.45;8.25;;;;;;;;;;5027247;28;20014;-69
2023/05/05 10:10:51;;;;;;;13.02;7.75;;;;;;;;;;5024235;28;20024;-69
2023/05/05 10:13:17;;;;;;;18.83;9.70;;;;;;;;;;5027946;28;20025;-69
2023/05/05 10:15:43;;;;;;;18.88;9.40;;;;;;;;;;5030458;28;21195;-69
2023/05/05 10:18:09;;;;;;;14.85;9.40;;;;;;;;;;5030125;28;20025;-69
2023/05/05 10:20:35;;;;;;;12.13;7.47;;;;;;;;;;5027589;28;20093;-69
2023/05/05 10:23:01;;;;;;;12.98;8.07;;;;;;;;;;5027840;28;20471;-69
2023/05/05 10:25:28;;;;;;;15.80;6.30;;;;;;;;;;5024922;28;20073;-69
2023/05/05 10:27:56;;;;;;;10.95;6.03;;;;;;;;;;5025539;28;20033;-69
2023/05/05 10:30:23;;;;;;;9.85;7.38;;;;;;;;;;5027504;28;20034;-69
2023/05/05 10:32:59;;;;;;;15.73;6.47;;;;;;;;;;5022601;28;20492;-69
2023/05/05 10:35:27;;;;;;;11.60;6.07;;;;;;;;;;5023170;28;20018;-69
2023/05/05 10:37:53;;;;;;;10.75;6.47;;;;;;;;;;5023887;28;20015;-69
2023/05/05 10:40:20;;;;;;;9.07;4.78;;;;;;;;;;5028112;28;20021;-69
2023/05/05 10:42:45;;;;;;;6.45;3.95;;;;;;;;;;5026641;28;20026;-69
2023/05/05 10:45:10;;;;;;;10.02;4.63;;;;;;;;;;5026310;28;20024;-69
2023/05/05 10:47:36;;;;;;;10.40;5.03;;;;;;;;;;5024649;28;20022;-68
2023/05/05 10:50:06;;;;;;;12.50;5.93;;;;;;;;;;5028857;28;20021;-69
2023/05/05 10:52:34;;;;;;;6.22;4.40;;;;;;;;;;5027207;28;20033;-68
2023/05/05 10:55:05;;;;;;;6.70;3.20;;;;;;;;;;5027633;28;20051;-69
2023/05/05 10:57:31;;;;;;;15.88;4.10;;;;;;;;;;5027844;28;20025;-69
2023/05/05 10:59:56;;;;;;;13.40;5.32;;;;;;;;;;5030959;28;20060;-69
2023/05/05 11:02:22;;;;;;;10.63;4.90;;;;;;;;;;5028947;28;20570;-68
2023/05/05 11:05:06;;;;;;;17.60;6.80;;;;;;;;;;5021178;28;20060;-69
2023/05/05 11:07:33;;;;;;;9.70;6.45;;;;;;;;;;5028526;28;20116;-69
2023/05/05 11:10:01;;;;;;;17.23;5.40;;;;;;;;;;5024106;28;20021;-69
2023/05/05 11:12:27;;;;;;;14.60;4.95;;;;;;;;;;5025027;28;20091;-69
2023/05/05 11:15:12;;;;;;;10.77;6.07;;;;;;;;;;5023888;28;20021;-69
2023/05/05 11:17:44;;;;;;;12.80;6.05;;;;;;;;;;5029374;28;21835;-68
2023/05/05 11:20:09;;;;;;;12.45;5.72;;;;;;;;;;5025184;28;20412;-69
2023/05/05 11:22:55;;;;;;;9.55;6.20;;;;;;;;;;5023679;28;20029;-70
2023/05/05 11:25:35;;;;;;;13.88;6.95;;;;;;;;;;5032190;28;20493;-70
2023/05/05 11:28:05;;;;;;;11.35;7.53;;;;;;;;;;5029213;28;20543;-69
2023/05/05 11:30:30;;;;;;;11.40;6.15;;;;;;;;;;5025300;28;20029;-69
2023/05/05 11:33:15;;;;;;;13.63;6.18;;;;;;;;;;5022440;28;20030;-69
2023/05/05 11:35:53;;;;;;;15.75;6.65;;;;;;;;;;5031252;28;20474;-69
2023/05/05 11:38:20;;;;;;;8.20;5.15;;;;;;;;;;5026772;28;20391;-69
2023/05/05 11:40:46;;;;;;;7.82;5.10;;;;;;;;;;5028809;28;20368;-69
2023/05/05 11:43:11;;;;;;;13.65;4.90;;;;;;;;;;5028950;28;20040;-69
2023/05/05 11:45:36;;;;;;;7.60;4.37;;;;;;;;;;5023976;28;20029;-69
2023/05/05 11:48:20;;;;;;;8.33;4.40;;;;;;;;;;5031466;28;20291;-69
2023/05/05 11:50:47;;;;;;;7.90;3.30;;;;;;;;;;5029219;28;20022;-69
2023/05/05 11:53:12;;;;;;;6.20;3.95;;;;;;;;;;5022774;28;20117;-69
2023/05/05 11:55:37;;;;;;;11.65;4.63;;;;;;;;;;5031860;28;20155;-69
2023/05/05 11:58:16;;;;;;;8.80;3.87;;;;;;;;;;5030834;28;20056;-69
2023/05/05 12:00:41;;;;;;;10.02;4.28;;;;;;;;;;5029918;28;20112;-69
2023/05/05 12:03:07;;;;;;;11.53;4.30;;;;;;;;;;5031664;28;20124;-69
2023/05/05 12:05:32;;;;;;;13.15;5.10;;;;;;;;;;5023444;28;20283;-69
2023/05/05 12:07:58;;;;;;;10.63;5.45;;;;;;;;;;5023904;28;20018;-69
2023/05/05 12:10:23;;;;;;;13.40;3.67;;;;;;;;;;5034911;28;20028;-69
2023/05/05 12:12:49;;;;;;;7.10;3.60;;;;;;;;;;5033229;28;20021;-69
2023/05/05 12:15:14;;;;;;;4.53;2.83;;;;;;;;;;5030940;28;20022;-69
2023/05/05 12:17:41;;;;;;;2.08;1.58;;;;;;;;;;5030330;28;20044;-69
2023/05/05 12:20:07;;;;;;;7.53;2.83;;;;;;;;;;5030256;28;20389;-69
2023/05/05 12:22:32;;;;;;;6.15;2.72;;;;;;;;;;5025198;28;20029;-69
2023/05/05 12:24:58;;;;;;;5.97;2.25;;;;;;;;;;5036678;28;20097;-69
2023/05/05 12:27:25;;;;;;;3.20;2.47;;;;;;;;;;5026590;28;20490;-69
2023/05/05 12:29:50;;;;;;;6.05;2.65;;;;;;;;;;5030974;28;20026;-69
2023/05/05 12:32:19;;;;;;;6.72;2.20;;;;;;;;;;5032188;28;20013;-69
2023/05/05 12:34:45;;;;;;;4.00;1.93;;;;;;;;;;5032615;28;20017;-69
2023/05/05 12:37:10;;;;;;;6.70;2.00;;;;;;;;;;5028319;28;20017;-69
2023/05/05 12:39:35;;;;;;;3.30;1.77;;;;;;;;;;5026983;28;20615;-69
2023/05/05 12:42:02;;;;;;;4.25;1.83;;;;;;;;;;5030730;28;20757;-69
2023/05/05 12:44:33;;;;;;;3.72;1.75;;;;;;;;;;5029156;28;20029;-69
2023/05/05 12:46:58;;;;;;;4.68;2.00;;;;;;;;;;5024366;28;20550;-69
2023/05/05 12:49:23;;;;;;;3.55;1.38;;;;;;;;;;5029890;28;20101;-69
2023/05/05 12:51:55;;;;;;;3.47;1.73;;;;;;;;;;5027528;28;20038;-69
2023/05/05 12:54:23;;;;;;;7.15;2.20;;;;;;;;;;5028518;28;20679;-69
2023/05/05 12:56:48;;;;;;;4.32;2.17;;;;;;;;;;5038060;28;20389;-69
2023/05/05 12:59:22;;;;;;;5.50;2.30;;;;;;;;;;5032363;28;20112;-69
2023/05/05 13:01:48;;;;;;;5.13;1.70;;;;;;;;;;5035459;28;20087;-69
2023/05/05 13:04:14;;;;;;;4.05;1.77;;;;;;;;;;5033498;28;20450;-69
2023/05/05 13:06:40;;;;;;;4.45;2.22;;;;;;;;;;5025118;28;20055;-71
2023/05/05 13:09:05;;;;;;;3.78;2.05;;;;;;;;;;5030691;28;20052;-70
2023/05/05 13:11:37;;;;;;;11.48;2.47;;;;;;;;;;5028362;28;20052;-70
2023/05/05 13:14:03;;;;;;;7.05;2.08;;;;;;;;;;5031125;28;20021;-70
2023/05/05 13:16:29;;;;;;;6.47;2.00;;;;;;;;;;5028534;28;20028;-70
2023/05/05 13:18:54;;;;;;;4.40;2.03;;;;;;;;;;5029566;28;20063;-70
2023/05/05 13:21:19;;;;;;;5.40;2.60;;;;;;;;;;5032977;28;20026;-70
2023/05/05 13:23:45;;;;;;;8.23;3.20;;;;;;;;;;5023537;28;20074;-70
2023/05/05 13:26:11;;;;;;;5.10;2.35;;;;;;;;;;5024713;28;20095;-70
2023/05/05 13:28:36;;;;;;;5.07;2.35;;;;;;;;;;5026451;28;20036;-70
2023/05/05 13:31:01;;;;;;;6.03;2.60;;;;;;;;;;5028679;28;20021;-70
2023/05/05 13:33:26;;;;;;;14.10;3.40;;;;;;;;;;5022631;28;20039;-70
2023/05/05 13:35:51;;;;;;;7.13;2.83;;;;;;;;;;5028959;28;20017;-70
2023/05/05 13:38:16;;;;;;;9.13;2.27;;;;;;;;;;5028214;28;20268;-70
2023/05/05 13:40:42;;;;;;;8.10;3.10;;;;;;;;;;5021732;28;20033;-70
2023/05/05 13:43:07;;;;;;;8.77;3.40;;;;;;;;;;5033212;28;20044;-70
2023/05/05 13:45:32;;;;;;;7.67;3.47;;;;;;;;;;5029251;28;20044;-70
2023/05/05 13:47:58;;;;;;;5.93;3.67;;;;;;;;;;5024987;28;20330;-70
2023/05/05 13:50:23;;;;;;;13.90;5.47;;;;;;;;;;5020311;28;20037;-70
2023/05/05 13:52:48;;;;;;;13.50;6.35;;;;;;;;;;5026642;28;20470;-71
2023/05/05 13:55:13;;;;;;;11.93;6.23;;;;;;;;;;5031068;28;20013;-70
2023/05/05 13:57:38;;;;;;;14.57;6.53;;;;;;;;;;5017736;28;20326;-70
2023/05/05 14:00:04;;;;;;;9.53;5.90;;;;;;;;;;5023363;28;20017;-70
2023/05/05 14:02:29;;;;;;;14.27;6.85;;;;;;;;;;5031667;28;20037;-70
2023/05/05 14:04:55;;;;;;;12.93;6.95;;;;;;;;;;5025301;28;20432;-69
2023/05/05 14:07:20;;;;;;;6.93;3.17;;;;;;;;;;5024353;28;20022;-69
2023/05/05 14:09:45;;;;;;;6.60;3.05;;;;;;;;;;5021059;28;20029;-69
2023/05/05 14:12:11;;;;;;;6.33;3.43;;;;;;;;;;5030261;28;20033;-70
2023/05/05 14:14:36;;;;;;;6.68;3.63;;;;;;;;;;5027935;28;20379;-71
2023/05/05 14:17:01;;;;;;;12.10;4.50;;;;;;;;;;5028133;28;20455;-70
2023/05/05 14:19:26;;;;;;;8.60;4.35;;;;;;;;;;5026116;28;20383;-71
2023/05/05 14:21:52;;;;;;;7.90;3.63;;;;;;;;;;5027115;28;20096;-72
2023/05/05 14:24:17;;;;;;;10.60;4.18;;;;;;;;;;5031713;28;20414;-69
2023/05/05 14:26:42;;;;;;;6.70;3.53;;;;;;;;;;5026649;28;20104;-70
2023/05/05 14:29:07;;;;;;;8.93;3.73;;;;;;;;;;5029028;28;20025;-70
2023/05/05 14:31:32;;;;;;;12.20;3.60;;;;;;;;;;5023814;28;20022;-69